Terminal Aerodrome Forecast
Issued by NWS Wichita, KS

Home | Current Version | Previous Version | Text Only | Print | Product List | Glossary On
Versions: 1 2 3 4 5 6 7 8 9 10 11 12 13 14 15 16 17 18 19 20 21
000
FTUS43 KICT 221744 AAC
TAFICT
TAF AMD
KICT 221744Z 2218/2318 31026G35KT P6SM VCSH OVC020
      TEMPO 2218/2220 5SM -SNRA BKN015
     FM222000 31028G38KT P6SM BKN025
     FM222200 32027G36KT P6SM BKN045
     FM222300 31024G32KT P6SM SCT070
     FM230100 31014KT P6SM SCT150
     FM230900 31009KT P6SM FEW250=

USA.gov is the U.S. government's official web portal to all federal, state and local government web resources and services.